Time;durP1;ratioP1;P1;durP2;ratioP2;P2;SDS_P1;SDS_P2;PMS_P1;PMS_P2;Temp;Humidity;BMP_temperature;BMP_pressure;BME280_temperature;BME280_humidity;BME280_pressure;Samples;Min_cycle;Max_cycle;Signal;HPM_P1;HPM_P2
2021/09/04 00:00:33;;;;;;;17.92;10.10;;;13.40;99.90;;;;;;5026681;28;20461;-81
2021/09/04 00:02:59;;;;;;;16.17;9.82;;;13.30;99.90;;;;;;5026529;28;20072;-80
2021/09/04 00:05:25;;;;;;;20.58;10.88;;;13.20;99.90;;;;;;5027927;28;20053;-80
2021/09/04 00:07:50;;;;;;;15.13;9.15;;;13.30;99.90;;;;;;5026453;28;20049;-80
2021/09/04 00:10:17;;;;;;;16.52;9.93;;;13.20;99.90;;;;;;5026710;28;20030;-80
2021/09/04 00:12:42;;;;;;;16.77;8.90;;;13.10;99.90;;;;;;5026190;28;20175;-80
2021/09/04 00:15:09;;;;;;;16.38;9.23;;;13.10;99.90;;;;;;5027596;28;20049;-81
2021/09/04 00:17:42;;;;;;;20.48;11.70;;;13.10;99.90;;;;;;5022150;28;20030;-81
2021/09/04 00:20:09;;;;;;;15.80;9.68;;;13.10;99.90;;;;;;4990534;28;20026;-80
2021/09/04 00:22:34;;;;;;;19.40;11.27;;;13.10;99.90;;;;;;5007947;28;20038;-81
2021/09/04 00:25:00;;;;;;;17.08;10.27;;;13.00;99.90;;;;;;5007409;28;20471;-81
2021/09/04 00:27:25;;;;;;;18.90;11.45;;;13.10;99.90;;;;;;5024198;28;20040;-81
2021/09/04 00:29:51;;;;;;;21.52;11.02;;;13.00;99.90;;;;;;5009132;28;20034;-81
2021/09/04 00:32:17;;;;;;;17.33;9.52;;;13.00;99.90;;;;;;5007760;28;20057;-81
2021/09/04 00:34:42;;;;;;;17.40;10.65;;;12.90;99.90;;;;;;5006336;28;20030;-80
2021/09/04 00:37:08;;;;;;;18.27;10.30;;;12.90;99.90;;;;;;5022843;28;20042;-81
2021/09/04 00:39:34;;;;;;;19.05;10.27;;;12.90;99.90;;;;;;5022710;28;20399;-81
2021/09/04 00:41:59;;;;;;;16.70;9.88;;;12.90;99.90;;;;;;5006496;28;20038;-81
2021/09/04 00:44:25;;;;;;;15.00;8.75;;;12.80;99.90;;;;;;5006307;28;20053;-81
2021/09/04 00:47:11;;;;;;;23.50;10.80;;;12.90;99.90;;;;;;4989818;28;20026;-81
2021/09/04 00:49:37;;;;;;;17.60;10.07;;;12.80;99.90;;;;;;4991585;28;20049;-81
2021/09/04 00:52:05;;;;;;;20.67;12.27;;;12.90;99.90;;;;;;5008153;28;20038;-81
2021/09/04 00:54:31;;;;;;;18.33;10.75;;;12.80;99.90;;;;;;5007933;28;20129;-81
2021/09/04 00:56:57;;;;;;;14.52;8.95;;;12.80;99.90;;;;;;5008004;28;20046;-81
2021/09/04 00:59:25;;;;;;;19.58;10.70;;;12.80;99.90;;;;;;5024444;28;20034;-81
2021/09/04 01:01:50;;;;;;;15.85;10.00;;;12.80;99.90;;;;;;5024369;28;20038;-81
2021/09/04 01:04:19;;;;;;;18.35;10.13;;;12.70;99.90;;;;;;5007916;28;20105;-81
2021/09/04 01:06:46;;;;;;;15.38;8.32;;;12.70;99.90;;;;;;5024355;28;20140;-81
2021/09/04 01:09:15;;;;;;;21.40;12.13;;;12.60;99.90;;;;;;5004576;28;20028;-81
2021/09/04 01:11:41;;;;;;;20.25;10.50;;;12.60;99.90;;;;;;4988388;28;20182;-81
2021/09/04 01:14:07;;;;;;;21.73;10.55;;;12.60;99.90;;;;;;4988111;28;20045;-81
2021/09/04 01:16:43;;;;;;;20.23;10.43;;;12.60;99.90;;;;;;5004329;28;20129;-81
2021/09/04 01:19:10;;;;;;;14.75;7.65;;;12.60;99.90;;;;;;4987953;28;20558;-81
2021/09/04 01:21:37;;;;;;;17.42;8.95;;;12.60;99.90;;;;;;4972161;28;20050;-81
2021/09/04 01:24:05;;;;;;;15.90;8.00;;;12.50;99.90;;;;;;4987336;28;20042;-81
2021/09/04 01:26:31;;;;;;;19.60;9.80;;;12.50;99.90;;;;;;4993804;28;20462;-81
2021/09/04 01:28:58;;;;;;;19.05;9.50;;;12.50;99.90;;;;;;5005399;28;20054;-81
2021/09/04 01:31:28;;;;;;;17.20;9.88;;;12.50;99.90;;;;;;5005449;28;20042;-81
2021/09/04 01:33:54;;;;;;;15.80;8.68;;;12.50;99.90;;;;;;5005357;28;20034;-81
2021/09/04 01:36:29;;;;;;;18.42;8.55;;;12.50;99.90;;;;;;5021467;28;20053;-81
2021/09/04 01:38:55;;;;;;;20.77;11.20;;;12.50;99.90;;;;;;5005300;28;20392;-81
2021/09/04 01:41:20;;;;;;;18.58;10.50;;;12.40;99.90;;;;;;5005319;28;20065;-82
2021/09/04 01:43:46;;;;;;;16.92;9.90;;;12.40;99.90;;;;;;5005168;28;20042;-81
2021/09/04 01:46:11;;;;;;;19.58;9.98;;;12.40;99.90;;;;;;4988971;28;20030;-82
2021/09/04 01:48:37;;;;;;;17.55;10.30;;;12.40;99.90;;;;;;5004926;28;20041;-81
2021/09/04 01:51:03;;;;;;;18.33;9.82;;;12.30;99.90;;;;;;5006564;28;20031;-81
2021/09/04 01:53:29;;;;;;;18.77;9.07;;;12.30;99.90;;;;;;5005443;28;20038;-82
2021/09/04 01:55:55;;;;;;;16.38;9.70;;;12.30;99.90;;;;;;5004953;28;20036;-82
2021/09/04 01:58:20;;;;;;;17.17;8.45;;;12.30;99.90;;;;;;5021549;28;20272;-81
2021/09/04 02:00:46;;;;;;;17.23;9.27;;;12.30;99.90;;;;;;5005170;28;20026;-82
2021/09/04 02:03:11;;;;;;;16.58;9.50;;;12.30;99.90;;;;;;5005030;28;20042;-81
2021/09/04 02:05:37;;;;;;;15.98;8.90;;;12.30;99.90;;;;;;5004918;28;20029;-81
2021/09/04 02:08:03;;;;;;;16.15;8.68;;;12.40;99.90;;;;;;5011465;28;20510;-82
2021/09/04 02:10:29;;;;;;;13.73;8.38;;;12.50;99.90;;;;;;5024643;28;20104;-81
2021/09/04 02:12:54;;;;;;;18.50;10.23;;;12.50;99.90;;;;;;5024702;28;20464;-81
2021/09/04 02:15:20;;;;;;;17.67;10.98;;;12.50;99.90;;;;;;5024449;28;20026;-81
2021/09/04 02:17:45;;;;;;;21.63;10.68;;;12.50;99.90;;;;;;5025473;28;20026;-81
2021/09/04 02:20:12;;;;;;;16.65;8.38;;;12.50;99.90;;;;;;5008152;28;20033;-81
2021/09/04 02:22:38;;;;;;;17.27;9.93;;;12.60;99.90;;;;;;5024693;28;20077;-81
2021/09/04 02:25:04;;;;;;;20.73;10.57;;;12.60;99.90;;;;;;5024448;28;20026;-81
2021/09/04 02:27:32;;;;;;;19.13;10.38;;;12.60;99.90;;;;;;5024625;28;20037;-82
2021/09/04 02:29:58;;;;;;;20.58;10.52;;;12.60;99.90;;;;;;5025672;28;20433;-80
2021/09/04 02:32:24;;;;;;;20.80;10.38;;;12.70;99.90;;;;;;5024339;28;20061;-81
2021/09/04 02:34:49;;;;;;;24.02;11.15;;;12.70;99.90;;;;;;5026079;28;20025;-81
2021/09/04 02:37:16;;;;;;;21.58;11.43;;;12.80;99.90;;;;;;5028253;28;20046;-81
2021/09/04 02:39:44;;;;;;;25.33;13.02;;;12.70;99.90;;;;;;5028349;28;20030;-81
2021/09/04 02:42:11;;;;;;;25.20;11.70;;;12.70;99.90;;;;;;5028247;28;20109;-81
2021/09/04 02:44:38;;;;;;;20.63;10.57;;;12.70;99.90;;;;;;5028110;28;20097;-81
2021/09/04 02:47:05;;;;;;;22.58;11.77;;;12.80;99.90;;;;;;5011808;28;20060;-82
2021/09/04 02:49:30;;;;;;;25.50;11.65;;;12.80;99.90;;;;;;5029017;28;20033;-80
2021/09/04 02:51:56;;;;;;;24.58;13.40;;;12.70;99.90;;;;;;5027991;28;20022;-81
2021/09/04 02:54:22;;;;;;;25.48;12.27;;;12.70;99.90;;;;;;5011767;28;20053;-80
2021/09/04 02:56:48;;;;;;;23.17;13.07;;;12.70;99.90;;;;;;5011631;28;20022;-81
2021/09/04 02:59:16;;;;;;;22.98;12.05;;;12.70;99.90;;;;;;5027880;28;20034;-81
2021/09/04 03:01:42;;;;;;;19.48;10.90;;;12.70;99.90;;;;;;5027782;28;20093;-81
2021/09/04 03:04:09;;;;;;;21.65;10.55;;;12.70;99.90;;;;;;5027570;28;20215;-80
2021/09/04 03:06:35;;;;;;;21.23;11.35;;;12.70;99.90;;;;;;5028763;28;20026;-80
2021/09/04 03:09:01;;;;;;;21.13;11.43;;;12.70;99.90;;;;;;5027558;28;20040;-81
2021/09/04 03:11:27;;;;;;;23.15;11.05;;;12.80;99.90;;;;;;5011286;28;20049;-81
2021/09/04 03:13:55;;;;;;;24.95;12.23;;;12.80;99.90;;;;;;5027631;28;20030;-81
2021/09/04 03:16:21;;;;;;;30.98;14.48;;;12.80;99.90;;;;;;5007484;28;20465;-82
2021/09/04 03:18:47;;;;;;;21.67;12.00;;;12.80;99.90;;;;;;5025412;28;20033;-81
2021/09/04 03:21:14;;;;;;;21.45;12.05;;;12.80;99.90;;;;;;5027303;28;20026;-81
2021/09/04 03:23:39;;;;;;;21.10;10.98;;;12.80;99.90;;;;;;5028644;28;20044;-81
2021/09/04 03:26:06;;;;;;;19.95;10.57;;;12.80;99.90;;;;;;5027121;28;20022;-81
2021/09/04 03:28:32;;;;;;;23.60;13.20;;;12.80;99.90;;;;;;5028556;28;20089;-81
2021/09/04 03:30:58;;;;;;;27.00;12.82;;;12.80;99.90;;;;;;5011052;28;20101;-81
2021/09/04 03:33:24;;;;;;;23.42;11.63;;;12.80;99.90;;;;;;5027361;28;20054;-81
2021/09/04 03:35:50;;;;;;;27.90;15.20;;;12.80;99.90;;;;;;5010402;28;20049;-81
2021/09/04 03:38:16;;;;;;;24.15;13.45;;;12.80;99.90;;;;;;5028546;28;20036;-81
2021/09/04 03:40:42;;;;;;;23.23;11.70;;;12.80;99.90;;;;;;5010719;28;20033;-81
2021/09/04 03:43:09;;;;;;;21.88;12.07;;;12.90;99.90;;;;;;5028282;28;20042;-81
2021/09/04 03:45:35;;;;;;;21.75;12.23;;;12.90;99.90;;;;;;5010395;28;20054;-80
2021/09/04 03:48:01;;;;;;;20.52;9.73;;;12.80;99.90;;;;;;5026005;28;20211;-80
2021/09/04 03:50:29;;;;;;;17.85;10.45;;;12.90;99.90;;;;;;5026890;28;20080;-81
2021/09/04 03:52:55;;;;;;;24.23;12.50;;;12.80;99.90;;;;;;5026764;28;20026;-81
2021/09/04 03:55:21;;;;;;;15.20;8.00;;;12.80;99.90;;;;;;5026804;28;20037;-81
2021/09/04 03:57:48;;;;;;;20.35;11.00;;;12.90;99.90;;;;;;5026828;28;20040;-81
2021/09/04 04:00:14;;;;;;;22.30;10.82;;;12.90;99.90;;;;;;5028039;28;20073;-81
2021/09/04 04:02:43;;;;;;;17.02;9.00;;;12.90;99.90;;;;;;5026816;28;20572;-81
2021/09/04 04:05:13;;;;;;;21.20;11.02;;;12.90;99.90;;;;;;5026378;28;20022;-80
2021/09/04 04:07:39;;;;;;;21.83;10.10;;;12.90;99.90;;;;;;5027155;28;20032;-81
2021/09/04 04:10:05;;;;;;;21.25;9.73;;;12.90;99.90;;;;;;5027086;28;20470;-81
2021/09/04 04:12:30;;;;;;;19.23;11.10;;;12.90;99.90;;;;;;5026571;28;20030;-81
2021/09/04 04:14:56;;;;;;;22.50;11.50;;;12.90;99.90;;;;;;5026356;28;20117;-81
2021/09/04 04:17:24;;;;;;;25.33;11.25;;;12.90;99.90;;;;;;5010108;28;20018;-81
2021/09/04 04:19:50;;;;;;;23.75;12.13;;;12.80;99.90;;;;;;5009920;28;20030;-81
2021/09/04 04:22:15;;;;;;;22.15;11.70;;;12.80;99.90;;;;;;5009825;28;20038;-81
2021/09/04 04:24:42;;;;;;;20.33;10.80;;;12.80;99.90;;;;;;5026368;28;20049;-80
2021/09/04 04:27:08;;;;;;;24.77;12.15;;;12.90;99.90;;;;;;5026135;28;20022;-81
2021/09/04 04:29:34;;;;;;;23.98;12.85;;;12.90;99.90;;;;;;5010064;28;20056;-81
2021/09/04 04:32:00;;;;;;;26.63;12.90;;;12.80;99.90;;;;;;5026294;28;20116;-81
2021/09/04 04:34:27;;;;;;;22.45;12.38;;;12.80;99.90;;;;;;5009644;28;20056;-81
2021/09/04 04:36:54;;;;;;;18.25;10.68;;;12.90;99.90;;;;;;5025806;28;20050;-81
2021/09/04 04:39:20;;;;;;;19.45;10.82;;;12.90;99.90;;;;;;5027240;28;20033;-81
2021/09/04 04:41:47;;;;;;;24.65;12.80;;;12.90;99.90;;;;;;5025977;28;20456;-81
2021/09/04 04:44:13;;;;;;;22.05;12.05;;;12.80;99.90;;;;;;5009413;28;20101;-81
2021/09/04 04:46:58;;;;;;;25.75;12.77;;;12.90;99.90;;;;;;5025771;28;20200;-81
2021/09/04 04:49:26;;;;;;;21.77;11.40;;;12.90;99.90;;;;;;4989081;28;20035;-81
2021/09/04 04:51:52;;;;;;;22.92;12.80;;;12.90;99.90;;;;;;4988642;28;20522;-81
2021/09/04 04:54:18;;;;;;;20.75;11.43;;;12.90;99.90;;;;;;4988664;28;20043;-81
2021/09/04 04:56:44;;;;;;;23.13;12.07;;;12.90;99.90;;;;;;4972638;28;20030;-81
2021/09/04 04:59:10;;;;;;;23.55;13.18;;;13.00;99.90;;;;;;4988672;28;20039;-81
2021/09/04 05:01:36;;;;;;;20.02;11.52;;;13.00;99.90;;;;;;4988664;28;20034;-81
2021/09/04 05:04:03;;;;;;;19.33;10.55;;;13.00;99.90;;;;;;5004883;28;20043;-81
2021/09/04 05:06:28;;;;;;;24.42;12.68;;;13.00;99.90;;;;;;4988583;28;20505;-81
2021/09/04 05:08:54;;;;;;;24.48;12.15;;;13.00;99.90;;;;;;4989123;28;20537;-81
2021/09/04 05:11:21;;;;;;;21.60;11.68;;;13.00;99.90;;;;;;4989839;28;20046;-81
2021/09/04 05:13:48;;;;;;;25.30;13.52;;;13.10;99.90;;;;;;4990017;28;20038;-81
2021/09/04 05:16:15;;;;;;;25.17;13.35;;;13.10;99.90;;;;;;4988373;28;20037;-81
2021/09/04 05:18:41;;;;;;;25.33;13.15;;;13.00;99.90;;;;;;4984832;28;20066;-81
2021/09/04 05:21:07;;;;;;;21.50;12.60;;;13.00;99.90;;;;;;4985135;28;20038;-81
2021/09/04 05:23:34;;;;;;;23.77;12.55;;;13.00;99.90;;;;;;5001067;28;20118;-81
2021/09/04 05:26:00;;;;;;;21.48;12.30;;;13.00;99.90;;;;;;4978003;28;20052;-81
2021/09/04 05:28:26;;;;;;;23.02;11.50;;;13.10;99.90;;;;;;5005411;28;20030;-81
2021/09/04 05:30:51;;;;;;;33.33;16.75;;;13.10;99.90;;;;;;5021798;28;20034;-81
2021/09/04 05:33:17;;;;;;;25.40;13.20;;;13.10;99.90;;;;;;4988578;28;20065;-81
2021/09/04 05:35:43;;;;;;;22.25;12.98;;;13.10;99.90;;;;;;5004682;28;20077;-81
2021/09/04 05:38:09;;;;;;;21.90;12.63;;;13.20;99.90;;;;;;5004671;28;20058;-81
2021/09/04 05:40:35;;;;;;;19.73;11.43;;;13.10;99.90;;;;;;5006059;28;20023;-81
2021/09/04 05:43:00;;;;;;;20.17;11.45;;;13.20;99.90;;;;;;4988599;28;20065;-81
2021/09/04 05:45:26;;;;;;;19.75;11.20;;;13.20;99.90;;;;;;4988397;28;20042;-81
2021/09/04 05:47:51;;;;;;;20.88;11.85;;;13.10;99.90;;;;;;5004279;28;20058;-81
2021/09/04 05:50:17;;;;;;;19.92;10.88;;;13.10;99.90;;;;;;5004511;28;20022;-82
2021/09/04 05:52:43;;;;;;;21.33;11.80;;;13.20;99.90;;;;;;5004435;28;20026;-81
2021/09/04 05:55:08;;;;;;;22.23;11.60;;;13.20;99.90;;;;;;4988056;28;20034;-82
2021/09/04 05:57:34;;;;;;;16.30;9.10;;;13.20;99.90;;;;;;5004388;28;20076;-82
2021/09/04 06:00:00;;;;;;;18.40;10.52;;;13.20;99.90;;;;;;5004460;28;20034;-81
2021/09/04 06:02:25;;;;;;;19.35;9.38;;;13.20;99.90;;;;;;4988096;28;20050;-81
2021/09/04 06:04:51;;;;;;;20.77;11.05;;;13.20;99.90;;;;;;5004050;28;20037;-81
2021/09/04 06:07:16;;;;;;;17.95;8.63;;;13.20;99.90;;;;;;4988323;28;20061;-80
2021/09/04 06:09:42;;;;;;;18.30;10.68;;;13.20;99.90;;;;;;5023241;28;20040;-82
2021/09/04 06:12:08;;;;;;;21.75;10.98;;;13.30;99.90;;;;;;5025216;28;20022;-81
2021/09/04 06:14:33;;;;;;;22.85;11.50;;;13.30;99.90;;;;;;5023814;28;20481;-81
2021/09/04 06:16:59;;;;;;;18.88;11.50;;;13.20;99.90;;;;;;5023794;28;20034;-81
2021/09/04 06:19:24;;;;;;;23.50;11.25;;;13.30;99.90;;;;;;5024881;28;20032;-81
2021/09/04 06:21:50;;;;;;;21.08;11.63;;;13.30;99.90;;;;;;5024031;28;20101;-81
2021/09/04 06:24:16;;;;;;;18.83;10.88;;;13.20;99.90;;;;;;5023433;28;20486;-81
2021/09/04 06:26:41;;;;;;;18.92;10.38;;;13.20;99.90;;;;;;5023488;28;20040;-81
2021/09/04 06:29:07;;;;;;;20.50;10.52;;;13.30;99.90;;;;;;5007175;28;20057;-81
2021/09/04 06:31:33;;;;;;;19.35;11.13;;;13.20;99.90;;;;;;5023749;28;20030;-82
2021/09/04 06:33:58;;;;;;;20.73;10.38;;;13.20;99.90;;;;;;5007316;28;20033;-81
2021/09/04 06:36:24;;;;;;;20.50;11.25;;;13.20;99.90;;;;;;5023501;28;20049;-81
2021/09/04 06:38:49;;;;;;;21.02;10.32;;;13.20;99.90;;;;;;5007028;28;20037;-81
2021/09/04 06:41:15;;;;;;;18.63;9.90;;;13.30;99.90;;;;;;5023763;28;20089;-81
2021/09/04 06:43:41;;;;;;;20.35;10.32;;;13.30;99.90;;;;;;5023398;28;20261;-81
2021/09/04 06:46:06;;;;;;;18.85;10.60;;;13.40;99.90;;;;;;5023575;28;20041;-81
2021/09/04 06:48:32;;;;;;;15.32;9.00;;;13.50;99.90;;;;;;5023514;28;20050;-84
2021/09/04 06:50:58;;;;;;;20.77;10.98;;;13.50;99.90;;;;;;5023904;28;20057;-84
2021/09/04 06:53:23;;;;;;;23.60;11.95;;;13.50;99.90;;;;;;5024002;28;20072;-84
2021/09/04 06:55:49;;;;;;;20.92;10.35;;;13.50;99.90;;;;;;5007387;28;20093;-84
2021/09/04 06:58:15;;;;;;;23.42;12.57;;;13.60;99.90;;;;;;5023968;28;20038;-83
2021/09/04 07:00:40;;;;;;;15.52;9.82;;;13.50;99.90;;;;;;5023807;28;20049;-85
2021/09/04 07:03:06;;;;;;;16.45;9.13;;;13.60;99.90;;;;;;5023919;28;20129;-84
2021/09/04 07:05:31;;;;;;;20.70;11.25;;;13.60;99.90;;;;;;5024422;28;20041;-84
2021/09/04 07:07:57;;;;;;;19.33;10.10;;;13.70;99.90;;;;;;5027792;28;20405;-85
2021/09/04 07:10:22;;;;;;;17.95;10.30;;;13.70;99.90;;;;;;5028990;28;20026;-84
2021/09/04 07:12:48;;;;;;;11.82;7.07;;;13.80;99.90;;;;;;5027085;28;20042;-84
2021/09/04 07:15:14;;;;;;;17.55;9.48;;;13.80;99.90;;;;;;5024419;28;20052;-84
2021/09/04 07:17:39;;;;;;;15.85;8.93;;;13.80;99.90;;;;;;5015285;28;20117;-85
2021/09/04 07:20:06;;;;;;;16.23;8.25;;;13.90;99.90;;;;;;5022854;28;20038;-84
2021/09/04 07:22:31;;;;;;;16.50;10.88;;;13.90;99.90;;;;;;5026182;28;20049;-85
2021/09/04 07:24:57;;;;;;;13.52;8.50;;;13.90;99.90;;;;;;5028090;28;20498;-84
2021/09/04 07:27:22;;;;;;;12.43;8.00;;;14.00;99.90;;;;;;5010591;28;20101;-84
2021/09/04 07:29:48;;;;;;;13.98;7.88;;;14.10;99.90;;;;;;5026780;28;20088;-84
2021/09/04 07:32:13;;;;;;;11.90;7.85;;;14.00;99.90;;;;;;5026710;28;20110;-84
2021/09/04 07:34:39;;;;;;;12.57;7.55;;;14.10;99.90;;;;;;5026715;28;20026;-84
2021/09/04 07:37:05;;;;;;;10.15;6.25;;;14.20;99.90;;;;;;5026514;28;20470;-85
2021/09/04 07:39:30;;;;;;;12.80;7.43;;;14.30;99.90;;;;;;5026855;28;20041;-84
2021/09/04 07:41:56;;;;;;;11.30;6.80;;;14.40;99.90;;;;;;5010302;28;20030;-84
2021/09/04 07:44:21;;;;;;;10.70;5.47;;;14.40;99.90;;;;;;5026481;28;20072;-84
2021/09/04 07:47:07;;;;;;;11.65;5.55;;;14.40;99.90;;;;;;5009901;28;20196;-85
2021/09/04 07:49:33;;;;;;;14.25;7.28;;;14.30;99.90;;;;;;4973215;28;20066;-86
2021/09/04 07:51:59;;;;;;;14.20;7.25;;;14.30;99.90;;;;;;4989263;28;20529;-84
2021/09/04 07:54:24;;;;;;;12.93;7.88;;;14.30;99.90;;;;;;4973183;28;20457;-84
2021/09/04 07:56:50;;;;;;;12.60;7.72;;;14.50;99.90;;;;;;4989191;28;20034;-84
2021/09/04 07:59:15;;;;;;;13.45;7.25;;;14.70;99.90;;;;;;4973074;28;20077;-84
2021/09/04 08:01:41;;;;;;;14.10;7.30;;;14.70;99.90;;;;;;4989140;28;20049;-83
2021/09/04 08:04:06;;;;;;;13.57;7.00;;;14.50;99.90;;;;;;4989169;28;20121;-84
2021/09/04 08:06:32;;;;;;;11.00;5.95;;;14.70;99.90;;;;;;4988182;28;20399;-83
2021/09/04 08:08:58;;;;;;;14.18;8.02;;;14.90;99.90;;;;;;5003944;28;20082;-84
2021/09/04 08:11:23;;;;;;;12.95;6.93;;;14.90;99.90;;;;;;4988804;28;20101;-84
2021/09/04 08:13:49;;;;;;;10.18;7.10;;;14.90;99.90;;;;;;5005248;28;20046;-84
2021/09/04 08:16:14;;;;;;;10.35;6.45;;;14.90;99.90;;;;;;4980167;28;20065;-84
2021/09/04 08:18:40;;;;;;;9.93;6.15;;;15.00;99.90;;;;;;4972387;28;20037;-84
2021/09/04 08:21:05;;;;;;;10.10;6.32;;;15.20;99.90;;;;;;5004622;28;20375;-84
2021/09/04 08:23:31;;;;;;;11.65;7.00;;;15.20;99.90;;;;;;4988876;28;20050;-84
2021/09/04 08:25:57;;;;;;;13.27;6.97;;;15.20;99.90;;;;;;4973753;28;20053;-84
2021/09/04 08:28:22;;;;;;;11.23;7.00;;;15.10;99.90;;;;;;5006156;28;20034;-84
2021/09/04 08:30:48;;;;;;;10.27;6.22;;;15.10;99.90;;;;;;5005774;28;20118;-84
2021/09/04 08:33:14;;;;;;;14.38;9.27;;;15.10;99.90;;;;;;4992234;28;20365;-85
2021/09/04 08:35:40;;;;;;;14.98;9.30;;;15.00;99.90;;;;;;5008628;28;20050;-84
2021/09/04 08:38:09;;;;;;;12.30;7.85;;;15.10;99.90;;;;;;5025381;28;20038;-83
2021/09/04 08:40:40;;;;;;;13.82;8.23;;;15.20;99.90;;;;;;5009037;28;20030;-82
2021/09/04 08:43:06;;;;;;;10.57;7.03;;;15.60;99.90;;;;;;5025487;28;20038;-83
2021/09/04 08:45:32;;;;;;;14.63;7.25;;;15.70;99.90;;;;;;5008833;28;20029;-83
2021/09/04 08:48:00;;;;;;;10.32;6.68;;;15.70;99.90;;;;;;5025135;28;20048;-83
2021/09/04 08:50:26;;;;;;;10.70;5.60;;;15.70;99.90;;;;;;5008607;28;20030;-83
2021/09/04 08:52:53;;;;;;;10.05;6.85;;;15.80;99.90;;;;;;5008986;28;20057;-84
2021/09/04 08:55:19;;;;;;;11.77;7.32;;;15.80;99.90;;;;;;5008774;28;20402;-83
2021/09/04 08:57:46;;;;;;;11.05;7.13;;;15.90;99.90;;;;;;5025029;28;20135;-83
2021/09/04 09:00:12;;;;;;;11.82;7.18;;;16.00;99.90;;;;;;5008804;28;20049;-83
2021/09/04 09:02:37;;;;;;;10.85;7.15;;;16.10;99.90;;;;;;5007691;28;20040;-82
2021/09/04 09:05:06;;;;;;;10.88;7.35;;;15.80;99.90;;;;;;5024829;28;20041;-82
2021/09/04 09:07:40;;;;;;;9.55;5.85;;;16.00;99.90;;;;;;5024492;28;20033;-83
2021/09/04 09:10:21;;;;;;;10.98;6.75;;;16.10;99.90;;;;;;5024907;28;20033;-84
2021/09/04 09:12:47;;;;;;;10.23;6.85;;;16.20;99.90;;;;;;5023800;28;20065;-84
2021/09/04 09:15:19;;;;;;;12.07;5.80;;;16.20;99.90;;;;;;5024488;28;20402;-84
2021/09/04 09:18:16;;;;;;;11.05;5.97;;;16.30;99.90;;;;;;5007690;28;20049;-84
2021/09/04 09:20:47;;;;;;;10.90;6.63;;;16.20;99.90;;;;;;5025469;28;20050;-84
2021/09/04 09:23:20;;;;;;;8.43;6.15;;;16.30;99.90;;;;;;5008162;28;20132;-83
2021/09/04 09:25:47;;;;;;;13.02;7.53;;;16.30;99.90;;;;;;5008313;28;20034;-85
2021/09/04 09:28:17;;;;;;;11.10;5.95;;;16.40;99.90;;;;;;5008045;28;20097;-83
2021/09/04 09:30:46;;;;;;;12.25;7.40;;;16.60;99.90;;;;;;5008223;28;20053;-84
2021/09/04 09:33:17;;;;;;;10.98;7.50;;;16.50;99.90;;;;;;5024701;28;20073;-84
2021/09/04 09:35:51;;;;;;;11.45;7.05;;;16.50;99.90;;;;;;5007669;28;20077;-84
2021/09/04 09:38:25;;;;;;;9.90;7.28;;;16.40;99.90;;;;;;5008142;28;20099;-84
2021/09/04 09:40:52;;;;;;;11.73;6.60;;;16.50;99.90;;;;;;5024642;28;20112;-84
2021/09/04 09:43:23;;;;;;;10.88;7.20;;;16.40;99.90;;;;;;5007804;28;20078;-83
2021/09/04 09:45:50;;;;;;;12.32;7.30;;;16.40;99.90;;;;;;5007139;28;20033;-84
2021/09/04 09:48:23;;;;;;;11.65;7.18;;;16.50;99.90;;;;;;5057242;28;20030;-84
2021/09/04 09:50:50;;;;;;;14.13;7.90;;;16.80;99.90;;;;;;5006673;28;20421;-84
2021/09/04 09:53:17;;;;;;;12.05;7.03;;;16.60;99.90;;;;;;5020821;28;20064;-83
2021/09/04 09:55:45;;;;;;;14.27;9.13;;;16.80;99.90;;;;;;5024150;28;20025;-83
2021/09/04 09:58:12;;;;;;;13.25;8.20;;;17.10;99.90;;;;;;5023648;28;20037;-83
2021/09/04 10:00:39;;;;;;;11.52;7.90;;;17.50;99.90;;;;;;5023984;28;20030;-84
2021/09/04 10:03:06;;;;;;;10.90;7.85;;;17.90;99.90;;;;;;5023952;28;20065;-83
2021/09/04 10:05:33;;;;;;;16.55;9.65;;;18.10;99.90;;;;;;5023760;28;20084;-83
2021/09/04 10:07:59;;;;;;;12.57;9.35;;;17.90;99.90;;;;;;5006984;28;20048;-83
2021/09/04 10:10:28;;;;;;;11.50;8.27;;;17.90;99.90;;;;;;5040098;28;20034;-83
2021/09/04 10:12:54;;;;;;;11.23;7.72;;;18.20;99.90;;;;;;5023706;28;20034;-83
2021/09/04 10:15:24;;;;;;;10.52;7.72;;;18.50;99.90;;;;;;5023156;28;20024;-83
2021/09/04 10:17:50;;;;;;;;;;;18.70;99.90;;;;;;5007193;28;20033;-83
2021/09/04 10:20:16;;;;;;;10.27;6.72;;;18.60;99.90;;;;;;5023454;28;19909;-83
2021/09/04 10:22:44;;;;;;;11.10;7.35;;;18.90;99.90;;;;;;5007177;28;20126;-83
2021/09/04 10:25:18;;;;;;;14.95;8.38;;;19.20;99.90;;;;;;5007222;28;20029;-83
2021/09/04 10:27:49;;;;;;;8.23;5.90;;;19.30;99.90;;;;;;4995924;28;20049;-83
2021/09/04 10:30:25;;;;;;;12.60;7.57;;;19.10;99.90;;;;;;5038869;28;20136;-83
2021/09/04 10:33:00;;;;;;;8.50;5.63;;;19.20;99.90;;;;;;5022378;28;20042;-82
2021/09/04 10:35:57;;;;;;;10.55;7.55;;;19.60;99.90;;;;;;5006828;28;20037;-82
2021/09/04 10:38:26;;;;;;;10.00;7.63;;;19.40;99.90;;;;;;5024758;28;20061;-83
2021/09/04 10:41:06;;;;;;;11.20;7.72;;;19.50;99.90;;;;;;5023666;28;20065;-83
2021/09/04 10:43:32;;;;;;;9.73;6.43;;;19.70;99.90;;;;;;5023588;28;20068;-82
2021/09/04 10:45:59;;;;;;;10.95;7.05;;;19.80;99.90;;;;;;5025016;28;20030;-82
2021/09/04 10:48:36;;;;;;;10.82;7.28;;;19.80;99.90;;;;;;5022902;28;20080;-82
2021/09/04 10:51:11;;;;;;;11.50;7.97;;;19.70;99.90;;;;;;5023385;28;20441;-81
2021/09/04 10:53:44;;;;;;;12.88;8.80;;;19.70;99.90;;;;;;5022090;28;20022;-81
2021/09/04 10:56:22;;;;;;;11.15;8.55;;;20.00;99.90;;;;;;5040737;28;20041;-81
2021/09/04 10:58:49;;;;;;;10.90;7.90;;;20.30;99.90;;;;;;5043236;28;20100;-82
2021/09/04 11:01:26;;;;;;;8.20;6.50;;;20.30;99.90;;;;;;5026631;28;20478;-82
2021/09/04 11:03:54;;;;;;;9.98;6.45;;;20.30;99.90;;;;;;5043011;28;20044;-82
2021/09/04 11:06:25;;;;;;;10.88;7.30;;;20.30;99.90;;;;;;5030928;28;20026;-82
2021/09/04 11:08:52;;;;;;;9.90;7.15;;;20.20;99.90;;;;;;5003190;28;20040;-82
2021/09/04 11:11:38;;;;;;;12.05;7.20;;;20.40;99.90;;;;;;5025891;28;20034;-82
2021/09/04 11:14:24;;;;;;;9.05;6.63;;;20.30;99.90;;;;;;5026859;28;20052;-82
2021/09/04 11:16:52;;;;;;;7.88;6.78;;;20.70;99.90;;;;;;5008197;28;20038;-81
2021/09/04 11:19:31;;;;;;;11.88;7.20;;;20.70;99.90;;;;;;5007208;28;20160;-82
2021/09/04 11:21:58;;;;;;;7.22;5.32;;;20.70;99.90;;;;;;4997381;28;20030;-82
2021/09/04 11:24:28;;;;;;;11.55;9.38;;;20.80;99.90;;;;;;5009867;28;20053;-82
2021/09/04 11:27:00;;;;;;;12.10;9.13;;;20.80;99.90;;;;;;5026181;28;20029;-82
2021/09/04 11:29:26;;;;;;;8.95;6.72;;;20.60;99.90;;;;;;5027825;28;20038;-82
2021/09/04 11:31:55;;;;;;;13.18;9.63;;;20.70;99.90;;;;;;5026620;28;20104;-82
2021/09/04 11:34:37;;;;;;;10.52;8.00;;;20.40;99.90;;;;;;5010091;28;20026;-82
2021/09/04 11:37:20;;;;;;;11.07;8.70;;;21.00;99.90;;;;;;5010003;28;20046;-82
2021/09/04 11:39:46;;;;;;;12.20;7.53;;;21.00;99.90;;;;;;5027776;28;20050;-82
2021/09/04 11:42:17;;;;;;;11.65;7.57;;;21.20;99.90;;;;;;5026345;28;20042;-82
2021/09/04 11:44:58;;;;;;;11.13;8.07;;;21.00;99.90;;;;;;5026214;28;20077;-83
2021/09/04 11:47:25;;;;;;;9.80;6.97;;;20.90;99.90;;;;;;5026307;28;20034;-82
2021/09/04 11:50:03;;;;;;;12.02;7.28;;;21.20;99.90;;;;;;5009807;28;20030;-82
2021/09/04 11:52:34;;;;;;;11.27;8.32;;;21.30;99.90;;;;;;5027788;28;20061;-81
2021/09/04 11:55:08;;;;;;;11.38;8.57;;;21.10;99.90;;;;;;5026224;28;20034;-81
2021/09/04 11:57:36;;;;;;;10.90;7.28;;;20.90;99.90;;;;;;5026337;28;20052;-81
2021/09/04 12:00:07;;;;;;;8.60;6.38;;;21.30;99.90;;;;;;5009920;28;20042;-82
2021/09/04 12:02:44;;;;;;;8.00;6.28;;;21.60;99.90;;;;;;5025995;28;20034;-81
2021/09/04 12:05:11;;;;;;;12.20;7.95;;;21.90;99.90;;;;;;5009520;28;20049;-82
2021/09/04 12:07:38;;;;;;;6.63;4.78;;;21.70;99.90;;;;;;5025409;28;20049;-82
2021/09/04 12:10:06;;;;;;;8.27;6.15;;;21.80;99.90;;;;;;5025944;28;20038;-82
2021/09/04 12:12:33;;;;;;;11.10;7.78;;;21.30;99.90;;;;;;5026181;28;20026;-83
2021/09/04 12:14:59;;;;;;;9.00;6.30;;;21.20;99.90;;;;;;5009506;28;20034;-82
2021/09/04 12:17:25;;;;;;;9.65;6.43;;;21.80;99.90;;;;;;5027136;28;20176;-82
2021/09/04 12:19:51;;;;;;;7.68;5.45;;;21.90;99.90;;;;;;5025717;28;20093;-82
2021/09/04 12:22:17;;;;;;;6.43;5.25;;;22.10;99.90;;;;;;5025737;28;20037;-81
2021/09/04 12:24:43;;;;;;;8.23;5.70;;;22.30;99.90;;;;;;5025717;28;20041;-81
2021/09/04 12:27:09;;;;;;;7.95;5.32;;;22.20;99.90;;;;;;5025920;28;20037;-81
2021/09/04 12:29:36;;;;;;;8.80;5.70;;;22.10;99.90;;;;;;5025466;28;20030;-81
2021/09/04 12:32:07;;;;;;;6.05;5.00;;;22.20;99.90;;;;;;5025582;28;20042;-82
2021/09/04 12:34:33;;;;;;;6.50;5.03;;;21.90;99.90;;;;;;5022478;28;20075;-82